sensor_id;sensor_type;location;lat;lon;timestamp;P1;durP1;ratioP1;P2;durP2;ratioP2
52956;SDS011;38819;42.692;23.342;2023-08-17T00:01:38;9.95;;;5.65;;
52956;SDS011;38819;42.692;23.342;2023-08-17T00:04:04;9.18;;;5.38;;
52956;SDS011;38819;42.692;23.342;2023-08-17T00:06:29;9.35;;;5.53;;
52956;SDS011;38819;42.692;23.342;2023-08-17T00:08:55;7.18;;;4.90;;
52956;SDS011;38819;42.692;23.342;2023-08-17T00:11:21;8.00;;;5.47;;
52956;SDS011;38819;42.692;23.342;2023-08-17T00:13:46;7.43;;;4.97;;
52956;SDS011;38819;42.692;23.342;2023-08-17T00:16:12;10.73;;;5.20;;
52956;SDS011;38819;42.692;23.342;2023-08-17T00:18:37;10.00;;;5.50;;
52956;SDS011;38819;42.692;23.342;2023-08-17T00:21:03;7.38;;;4.93;;
52956;SDS011;38819;42.692;23.342;2023-08-17T00:23:28;7.50;;;5.22;;
52956;SDS011;38819;42.692;23.342;2023-08-17T00:25:54;11.27;;;5.35;;
52956;SDS011;38819;42.692;23.342;2023-08-17T00:28:19;8.40;;;5.32;;
52956;SDS011;38819;42.692;23.342;2023-08-17T00:30:45;13.15;;;5.93;;
52956;SDS011;38819;42.692;23.342;2023-08-17T00:33:10;7.07;;;4.88;;
52956;SDS011;38819;42.692;23.342;2023-08-17T00:35:35;9.93;;;5.63;;
52956;SDS011;38819;42.692;23.342;2023-08-17T00:38:01;9.60;;;4.97;;
52956;SDS011;38819;42.692;23.342;2023-08-17T00:40:26;7.63;;;4.78;;
52956;SDS011;38819;42.692;23.342;2023-08-17T00:42:52;12.65;;;5.90;;
52956;SDS011;38819;42.692;23.342;2023-08-17T00:45:17;11.55;;;5.38;;
52956;SDS011;38819;42.692;23.342;2023-08-17T00:47:44;14.52;;;5.68;;
52956;SDS011;38819;42.692;23.342;2023-08-17T00:50:10;18.83;;;5.60;;
52956;SDS011;38819;42.692;23.342;2023-08-17T00:52:36;10.25;;;4.15;;
52956;SDS011;38819;42.692;23.342;2023-08-17T00:55:03;6.85;;;5.22;;
52956;SDS011;38819;42.692;23.342;2023-08-17T00:57:30;8.20;;;5.75;;
52956;SDS011;38819;42.692;23.342;2023-08-17T00:59:56;11.80;;;4.90;;
52956;SDS011;38819;42.692;23.342;2023-08-17T01:02:23;6.97;;;4.35;;
52956;SDS011;38819;42.692;23.342;2023-08-17T01:04:49;10.65;;;4.20;;
52956;SDS011;38819;42.692;23.342;2023-08-17T01:07:14;11.10;;;4.35;;
52956;SDS011;38819;42.692;23.342;2023-08-17T01:09:40;7.03;;;4.05;;
52956;SDS011;38819;42.692;23.342;2023-08-17T01:12:08;11.57;;;4.75;;
52956;SDS011;38819;42.692;23.342;2023-08-17T01:15:05;10.68;;;7.25;;
52956;SDS011;38819;42.692;23.342;2023-08-17T01:20:34;8.63;;;4.30;;
52956;SDS011;38819;42.692;23.342;2023-08-17T01:23:08;11.98;;;4.43;;
52956;SDS011;38819;42.692;23.342;2023-08-17T01:25:34;6.38;;;4.10;;
52956;SDS011;38819;42.692;23.342;2023-08-17T01:30:27;8.07;;;4.25;;
52956;SDS011;38819;42.692;23.342;2023-08-17T01:32:58;6.07;;;3.97;;
52956;SDS011;38819;42.692;23.342;2023-08-17T01:38:17;11.60;;;3.97;;
52956;SDS011;38819;42.692;23.342;2023-08-17T01:40:46;6.07;;;3.55;;
52956;SDS011;38819;42.692;23.342;2023-08-17T01:43:13;4.55;;;3.65;;
52956;SDS011;38819;42.692;23.342;2023-08-17T01:48:05;5.07;;;3.65;;
52956;SDS011;38819;42.692;23.342;2023-08-17T01:50:31;5.60;;;4.18;;
52956;SDS011;38819;42.692;23.342;2023-08-17T01:52:56;8.93;;;3.80;;
52956;SDS011;38819;42.692;23.342;2023-08-17T01:55:22;9.18;;;3.97;;
52956;SDS011;38819;42.692;23.342;2023-08-17T01:57:48;8.57;;;3.63;;
52956;SDS011;38819;42.692;23.342;2023-08-17T02:00:14;8.02;;;3.90;;
52956;SDS011;38819;42.692;23.342;2023-08-17T02:02:40;4.93;;;3.53;;
52956;SDS011;38819;42.692;23.342;2023-08-17T02:05:05;11.10;;;3.80;;
52956;SDS011;38819;42.692;23.342;2023-08-17T02:07:31;8.10;;;4.28;;
52956;SDS011;38819;42.692;23.342;2023-08-17T02:09:56;10.38;;;4.40;;
52956;SDS011;38819;42.692;23.342;2023-08-17T02:12:22;10.45;;;5.25;;
52956;SDS011;38819;42.692;23.342;2023-08-17T02:14:47;11.40;;;4.65;;
52956;SDS011;38819;42.692;23.342;2023-08-17T02:17:12;13.43;;;6.68;;
52956;SDS011;38819;42.692;23.342;2023-08-17T02:19:41;8.52;;;4.40;;
52956;SDS011;38819;42.692;23.342;2023-08-17T02:22:07;7.45;;;5.28;;
52956;SDS011;38819;42.692;23.342;2023-08-17T02:24:32;4.88;;;3.58;;
52956;SDS011;38819;42.692;23.342;2023-08-17T02:26:58;7.57;;;4.97;;
52956;SDS011;38819;42.692;23.342;2023-08-17T02:29:23;11.32;;;7.18;;
52956;SDS011;38819;42.692;23.342;2023-08-17T02:31:48;5.20;;;4.43;;
52956;SDS011;38819;42.692;23.342;2023-08-17T02:34:14;9.85;;;3.78;;
52956;SDS011;38819;42.692;23.342;2023-08-17T02:36:39;8.07;;;3.97;;
52956;SDS011;38819;42.692;23.342;2023-08-17T02:39:05;10.07;;;3.53;;
52956;SDS011;38819;42.692;23.342;2023-08-17T02:41:30;8.85;;;3.15;;
52956;SDS011;38819;42.692;23.342;2023-08-17T02:43:57;5.32;;;3.47;;
52956;SDS011;38819;42.692;23.342;2023-08-17T02:46:22;8.48;;;3.50;;
52956;SDS011;38819;42.692;23.342;2023-08-17T02:48:48;5.80;;;3.42;;
52956;SDS011;38819;42.692;23.342;2023-08-17T02:51:14;4.97;;;4.00;;
52956;SDS011;38819;42.692;23.342;2023-08-17T02:53:40;10.68;;;3.72;;
52956;SDS011;38819;42.692;23.342;2023-08-17T02:56:05;4.90;;;3.05;;
52956;SDS011;38819;42.692;23.342;2023-08-17T02:58:31;10.68;;;3.58;;
52956;SDS011;38819;42.692;23.342;2023-08-17T03:00:56;12.30;;;3.33;;
52956;SDS011;38819;42.692;23.342;2023-08-17T03:03:22;6.03;;;3.40;;
52956;SDS011;38819;42.692;23.342;2023-08-17T03:05:47;5.20;;;3.10;;
52956;SDS011;38819;42.692;23.342;2023-08-17T03:08:13;8.48;;;3.08;;
52956;SDS011;38819;42.692;23.342;2023-08-17T03:10:38;6.75;;;3.38;;
52956;SDS011;38819;42.692;23.342;2023-08-17T03:13:03;6.25;;;3.70;;
52956;SDS011;38819;42.692;23.342;2023-08-17T03:15:29;8.35;;;3.63;;
52956;SDS011;38819;42.692;23.342;2023-08-17T03:17:54;8.88;;;3.22;;
52956;SDS011;38819;42.692;23.342;2023-08-17T03:20:20;7.95;;;3.35;;
52956;SDS011;38819;42.692;23.342;2023-08-17T03:22:45;7.30;;;3.20;;
52956;SDS011;38819;42.692;23.342;2023-08-17T03:25:11;8.50;;;3.72;;
52956;SDS011;38819;42.692;23.342;2023-08-17T03:27:36;6.68;;;3.55;;
52956;SDS011;38819;42.692;23.342;2023-08-17T03:30:02;9.15;;;3.53;;
52956;SDS011;38819;42.692;23.342;2023-08-17T03:32:28;5.40;;;3.30;;
52956;SDS011;38819;42.692;23.342;2023-08-17T03:34:54;9.07;;;3.72;;
52956;SDS011;38819;42.692;23.342;2023-08-17T03:37:19;8.48;;;4.32;;
52956;SDS011;38819;42.692;23.342;2023-08-17T03:39:45;6.18;;;3.53;;
52956;SDS011;38819;42.692;23.342;2023-08-17T03:42:10;9.25;;;3.75;;
52956;SDS011;38819;42.692;23.342;2023-08-17T03:44:35;7.90;;;3.40;;
52956;SDS011;38819;42.692;23.342;2023-08-17T03:47:01;9.25;;;3.88;;
52956;SDS011;38819;42.692;23.342;2023-08-17T03:49:26;6.00;;;3.45;;
52956;SDS011;38819;42.692;23.342;2023-08-17T03:51:52;5.45;;;3.78;;
52956;SDS011;38819;42.692;23.342;2023-08-17T03:54:17;10.85;;;4.45;;
52956;SDS011;38819;42.692;23.342;2023-08-17T03:56:43;5.60;;;3.25;;
52956;SDS011;38819;42.692;23.342;2023-08-17T03:59:08;5.88;;;3.47;;
52956;SDS011;38819;42.692;23.342;2023-08-17T04:01:34;7.82;;;4.03;;
52956;SDS011;38819;42.692;23.342;2023-08-17T04:03:59;9.48;;;3.67;;
52956;SDS011;38819;42.692;23.342;2023-08-17T04:06:25;9.63;;;4.38;;
52956;SDS011;38819;42.692;23.342;2023-08-17T04:08:50;7.13;;;3.95;;
52956;SDS011;38819;42.692;23.342;2023-08-17T04:11:15;9.38;;;3.53;;
52956;SDS011;38819;42.692;23.342;2023-08-17T04:13:41;10.60;;;3.85;;
52956;SDS011;38819;42.692;23.342;2023-08-17T04:16:06;8.13;;;4.05;;
52956;SDS011;38819;42.692;23.342;2023-08-17T04:18:32;9.23;;;3.83;;
52956;SDS011;38819;42.692;23.342;2023-08-17T04:20:57;9.18;;;4.30;;
52956;SDS011;38819;42.692;23.342;2023-08-17T04:23:23;10.30;;;4.07;;
52956;SDS011;38819;42.692;23.342;2023-08-17T04:25:48;7.78;;;4.68;;
52956;SDS011;38819;42.692;23.342;2023-08-17T04:28:14;15.85;;;5.18;;
52956;SDS011;38819;42.692;23.342;2023-08-17T04:30:39;9.20;;;5.32;;
52956;SDS011;38819;42.692;23.342;2023-08-17T04:33:05;10.57;;;5.32;;
52956;SDS011;38819;42.692;23.342;2023-08-17T04:37:58;12.50;;;5.38;;
52956;SDS011;38819;42.692;23.342;2023-08-17T04:40:23;17.75;;;5.85;;
52956;SDS011;38819;42.692;23.342;2023-08-17T04:42:49;11.80;;;6.20;;
52956;SDS011;38819;42.692;23.342;2023-08-17T04:45:14;11.70;;;5.40;;
52956;SDS011;38819;42.692;23.342;2023-08-17T04:47:40;17.45;;;5.57;;
52956;SDS011;38819;42.692;23.342;2023-08-17T04:50:05;7.30;;;4.85;;
52956;SDS011;38819;42.692;23.342;2023-08-17T04:52:31;10.45;;;5.07;;
52956;SDS011;38819;42.692;23.342;2023-08-17T04:54:56;8.38;;;4.63;;
52956;SDS011;38819;42.692;23.342;2023-08-17T04:57:22;12.82;;;5.03;;
52956;SDS011;38819;42.692;23.342;2023-08-17T04:59:47;12.82;;;5.05;;
52956;SDS011;38819;42.692;23.342;2023-08-17T05:02:13;13.82;;;5.30;;
52956;SDS011;38819;42.692;23.342;2023-08-17T05:04:38;9.35;;;5.00;;
52956;SDS011;38819;42.692;23.342;2023-08-17T05:07:04;17.33;;;5.53;;
52956;SDS011;38819;42.692;23.342;2023-08-17T05:09:30;7.82;;;4.90;;
52956;SDS011;38819;42.692;23.342;2023-08-17T05:11:55;12.75;;;4.50;;
52956;SDS011;38819;42.692;23.342;2023-08-17T05:14:21;7.57;;;4.15;;
52956;SDS011;38819;42.692;23.342;2023-08-17T05:16:46;9.40;;;4.22;;
52956;SDS011;38819;42.692;23.342;2023-08-17T05:19:12;9.30;;;4.30;;
52956;SDS011;38819;42.692;23.342;2023-08-17T05:21:37;7.70;;;4.30;;
52956;SDS011;38819;42.692;23.342;2023-08-17T05:24:02;10.82;;;4.20;;
52956;SDS011;38819;42.692;23.342;2023-08-17T05:26:28;8.43;;;3.80;;
52956;SDS011;38819;42.692;23.342;2023-08-17T05:28:54;5.88;;;3.75;;
52956;SDS011;38819;42.692;23.342;2023-08-17T05:31:19;16.48;;;4.13;;
52956;SDS011;38819;42.692;23.342;2023-08-17T05:33:44;8.23;;;3.30;;
52956;SDS011;38819;42.692;23.342;2023-08-17T05:36:10;10.00;;;3.85;;
52956;SDS011;38819;42.692;23.342;2023-08-17T05:38:36;8.88;;;3.53;;
52956;SDS011;38819;42.692;23.342;2023-08-17T05:41:01;7.80;;;3.30;;
52956;SDS011;38819;42.692;23.342;2023-08-17T05:43:27;7.50;;;3.72;;
52956;SDS011;38819;42.692;23.342;2023-08-17T05:45:52;8.05;;;3.38;;
52956;SDS011;38819;42.692;23.342;2023-08-17T05:48:18;5.13;;;3.33;;
52956;SDS011;38819;42.692;23.342;2023-08-17T05:50:44;4.40;;;3.33;;
52956;SDS011;38819;42.692;23.342;2023-08-17T05:53:10;9.23;;;4.03;;
52956;SDS011;38819;42.692;23.342;2023-08-17T05:55:35;11.70;;;3.03;;
52956;SDS011;38819;42.692;23.342;2023-08-17T05:58:01;3.78;;;3.03;;
52956;SDS011;38819;42.692;23.342;2023-08-17T06:00:28;13.05;;;4.28;;
52956;SDS011;38819;42.692;23.342;2023-08-17T06:02:54;5.97;;;4.68;;
52956;SDS011;38819;42.692;23.342;2023-08-17T06:05:25;4.80;;;4.30;;
52956;SDS011;38819;42.692;23.342;2023-08-17T06:07:52;7.88;;;5.35;;
52956;SDS011;38819;42.692;23.342;2023-08-17T06:10:17;9.48;;;5.18;;
52956;SDS011;38819;42.692;23.342;2023-08-17T06:12:43;6.38;;;4.90;;
52956;SDS011;38819;42.692;23.342;2023-08-17T06:15:09;8.57;;;5.47;;
52956;SDS011;38819;42.692;23.342;2023-08-17T06:17:34;12.00;;;7.15;;
52956;SDS011;38819;42.692;23.342;2023-08-17T06:20:00;8.85;;;5.85;;
52956;SDS011;38819;42.692;23.342;2023-08-17T06:22:27;13.68;;;7.85;;
52956;SDS011;38819;42.692;23.342;2023-08-17T06:24:53;13.77;;;6.28;;
52956;SDS011;38819;42.692;23.342;2023-08-17T06:27:18;14.88;;;7.10;;
52956;SDS011;38819;42.692;23.342;2023-08-17T06:29:43;11.05;;;6.10;;
52956;SDS011;38819;42.692;23.342;2023-08-17T06:32:09;10.63;;;5.50;;
52956;SDS011;38819;42.692;23.342;2023-08-17T06:34:34;6.32;;;4.10;;
52956;SDS011;38819;42.692;23.342;2023-08-17T06:37:01;11.50;;;6.03;;
52956;SDS011;38819;42.692;23.342;2023-08-17T06:39:28;12.10;;;6.15;;
52956;SDS011;38819;42.692;23.342;2023-08-17T06:41:54;12.13;;;7.63;;
52956;SDS011;38819;42.692;23.342;2023-08-17T06:44:19;11.65;;;5.50;;
52956;SDS011;38819;42.692;23.342;2023-08-17T06:46:45;9.13;;;4.93;;
52956;SDS011;38819;42.692;23.342;2023-08-17T06:49:11;16.70;;;5.40;;
52956;SDS011;38819;42.692;23.342;2023-08-17T06:51:37;12.90;;;5.27;;
52956;SDS011;38819;42.692;23.342;2023-08-17T06:54:03;7.60;;;4.45;;
52956;SDS011;38819;42.692;23.342;2023-08-17T06:56:29;10.45;;;4.88;;
52956;SDS011;38819;42.692;23.342;2023-08-17T06:58:54;10.15;;;4.15;;
52956;SDS011;38819;42.692;23.342;2023-08-17T07:01:19;10.30;;;5.65;;
52956;SDS011;38819;42.692;23.342;2023-08-17T07:03:45;8.95;;;5.07;;
52956;SDS011;38819;42.692;23.342;2023-08-17T07:06:10;16.80;;;5.75;;
52956;SDS011;38819;42.692;23.342;2023-08-17T07:08:36;12.23;;;5.50;;
52956;SDS011;38819;42.692;23.342;2023-08-17T07:11:01;12.68;;;6.45;;
52956;SDS011;38819;42.692;23.342;2023-08-17T07:13:28;13.55;;;7.28;;
52956;SDS011;38819;42.692;23.342;2023-08-17T07:15:53;18.45;;;5.60;;
52956;SDS011;38819;42.692;23.342;2023-08-17T07:18:19;6.10;;;4.72;;
52956;SDS011;38819;42.692;23.342;2023-08-17T07:20:45;12.48;;;6.32;;
52956;SDS011;38819;42.692;23.342;2023-08-17T07:23:10;8.55;;;4.75;;
52956;SDS011;38819;42.692;23.342;2023-08-17T07:25:36;6.88;;;5.88;;
52956;SDS011;38819;42.692;23.342;2023-08-17T07:28:01;8.10;;;4.40;;
52956;SDS011;38819;42.692;23.342;2023-08-17T07:30:26;6.53;;;4.35;;
52956;SDS011;38819;42.692;23.342;2023-08-17T07:32:52;5.75;;;4.47;;
52956;SDS011;38819;42.692;23.342;2023-08-17T07:35:18;6.43;;;3.55;;
52956;SDS011;38819;42.692;23.342;2023-08-17T07:37:43;9.60;;;4.38;;
52956;SDS011;38819;42.692;23.342;2023-08-17T07:40:08;6.93;;;4.22;;
52956;SDS011;38819;42.692;23.342;2023-08-17T07:42:34;8.95;;;3.70;;
52956;SDS011;38819;42.692;23.342;2023-08-17T07:45:01;10.30;;;5.00;;
52956;SDS011;38819;42.692;23.342;2023-08-17T07:47:29;5.13;;;4.35;;
52956;SDS011;38819;42.692;23.342;2023-08-17T07:49:55;9.93;;;3.72;;
52956;SDS011;38819;42.692;23.342;2023-08-17T07:52:20;6.55;;;4.07;;
52956;SDS011;38819;42.692;23.342;2023-08-17T07:54:45;14.50;;;4.47;;
52956;SDS011;38819;42.692;23.342;2023-08-17T07:57:11;5.57;;;4.10;;
52956;SDS011;38819;42.692;23.342;2023-08-17T07:59:36;6.32;;;3.97;;
52956;SDS011;38819;42.692;23.342;2023-08-17T08:02:02;10.30;;;4.30;;
52956;SDS011;38819;42.692;23.342;2023-08-17T08:04:27;6.85;;;3.67;;
52956;SDS011;38819;42.692;23.342;2023-08-17T08:06:52;10.38;;;4.78;;
52956;SDS011;38819;42.692;23.342;2023-08-17T08:09:18;4.43;;;3.40;;
52956;SDS011;38819;42.692;23.342;2023-08-17T08:11:43;9.45;;;4.30;;
52956;SDS011;38819;42.692;23.342;2023-08-17T08:14:09;5.97;;;3.40;;
52956;SDS011;38819;42.692;23.342;2023-08-17T08:16:34;3.70;;;3.10;;
52956;SDS011;38819;42.692;23.342;2023-08-17T08:18:59;6.22;;;3.10;;
52956;SDS011;38819;42.692;23.342;2023-08-17T08:21:25;7.65;;;4.15;;
52956;SDS011;38819;42.692;23.342;2023-08-17T08:23:52;6.75;;;3.47;;
52956;SDS011;38819;42.692;23.342;2023-08-17T08:26:18;7.40;;;3.75;;
52956;SDS011;38819;42.692;23.342;2023-08-17T08:28:43;4.57;;;2.72;;
52956;SDS011;38819;42.692;23.342;2023-08-17T08:31:09;5.78;;;3.92;;
52956;SDS011;38819;42.692;23.342;2023-08-17T08:33:34;5.63;;;3.50;;
52956;SDS011;38819;42.692;23.342;2023-08-17T08:35:59;4.75;;;3.42;;
52956;SDS011;38819;42.692;23.342;2023-08-17T08:38:25;12.52;;;3.95;;
52956;SDS011;38819;42.692;23.342;2023-08-17T08:40:50;3.88;;;3.45;;
52956;SDS011;38819;42.692;23.342;2023-08-17T08:43:16;8.65;;;4.22;;
52956;SDS011;38819;42.692;23.342;2023-08-17T08:45:42;5.47;;;4.55;;
52956;SDS011;38819;42.692;23.342;2023-08-17T08:48:10;5.97;;;3.63;;
52956;SDS011;38819;42.692;23.342;2023-08-17T08:50:36;6.90;;;3.72;;
52956;SDS011;38819;42.692;23.342;2023-08-17T08:53:04;9.80;;;3.35;;
52956;SDS011;38819;42.692;23.342;2023-08-17T08:55:51;5.03;;;4.53;;
52956;SDS011;38819;42.692;23.342;2023-08-17T08:58:20;6.88;;;3.63;;
52956;SDS011;38819;42.692;23.342;2023-08-17T09:00:46;8.20;;;4.13;;
52956;SDS011;38819;42.692;23.342;2023-08-17T09:03:15;7.43;;;3.53;;
52956;SDS011;38819;42.692;23.342;2023-08-17T09:05:44;3.97;;;2.75;;
52956;SDS011;38819;42.692;23.342;2023-08-17T09:08:12;5.95;;;3.28;;
52956;SDS011;38819;42.692;23.342;2023-08-17T09:10:38;8.13;;;3.15;;
52956;SDS011;38819;42.692;23.342;2023-08-17T09:13:04;7.47;;;3.28;;
52956;SDS011;38819;42.692;23.342;2023-08-17T09:15:29;8.63;;;3.10;;
52956;SDS011;38819;42.692;23.342;2023-08-17T09:17:56;3.33;;;2.72;;
52956;SDS011;38819;42.692;23.342;2023-08-17T09:20:38;4.43;;;2.90;;
52956;SDS011;38819;42.692;23.342;2023-08-17T09:23:05;4.88;;;2.80;;
52956;SDS011;38819;42.692;23.342;2023-08-17T09:25:36;7.03;;;2.70;;
52956;SDS011;38819;42.692;23.342;2023-08-17T09:28:07;9.75;;;3.67;;
52956;SDS011;38819;42.692;23.342;2023-08-17T09:30:47;6.38;;;3.33;;
52956;SDS011;38819;42.692;23.342;2023-08-17T09:33:34;11.35;;;3.53;;
52956;SDS011;38819;42.692;23.342;2023-08-17T09:36:00;6.27;;;2.70;;
52956;SDS011;38819;42.692;23.342;2023-08-17T09:38:26;8.30;;;2.70;;
52956;SDS011;38819;42.692;23.342;2023-08-17T09:40:52;4.10;;;2.80;;
52956;SDS011;38819;42.692;23.342;2023-08-17T09:43:18;5.22;;;3.13;;
52956;SDS011;38819;42.692;23.342;2023-08-17T09:45:46;3.50;;;2.75;;
52956;SDS011;38819;42.692;23.342;2023-08-17T09:48:15;6.72;;;2.38;;
52956;SDS011;38819;42.692;23.342;2023-08-17T09:50:42;2.95;;;2.30;;
52956;SDS011;38819;42.692;23.342;2023-08-17T09:53:12;3.70;;;2.30;;
52956;SDS011;38819;42.692;23.342;2023-08-17T09:55:39;8.40;;;2.10;;
52956;SDS011;38819;42.692;23.342;2023-08-17T09:58:06;2.53;;;1.90;;
52956;SDS011;38819;42.692;23.342;2023-08-17T10:00:33;5.47;;;2.10;;
52956;SDS011;38819;42.692;23.342;2023-08-17T10:02:59;8.05;;;2.28;;
52956;SDS011;38819;42.692;23.342;2023-08-17T10:05:28;4.47;;;1.77;;
52956;SDS011;38819;42.692;23.342;2023-08-17T10:07:59;2.63;;;1.95;;
52956;SDS011;38819;42.692;23.342;2023-08-17T10:10:26;8.60;;;2.60;;
52956;SDS011;38819;42.692;23.342;2023-08-17T10:21:20;4.72;;;2.08;;
52956;SDS011;38819;42.692;23.342;2023-08-17T10:23:57;9.20;;;2.92;;
52956;SDS011;38819;42.692;23.342;2023-08-17T10:26:23;6.57;;;1.88;;
52956;SDS011;38819;42.692;23.342;2023-08-17T10:28:51;3.78;;;3.08;;
52956;SDS011;38819;42.692;23.342;2023-08-17T10:31:18;4.15;;;2.50;;
52956;SDS011;38819;42.692;23.342;2023-08-17T10:33:44;3.65;;;2.08;;
52956;SDS011;38819;42.692;23.342;2023-08-17T10:36:12;9.55;;;3.90;;
52956;SDS011;38819;42.692;23.342;2023-08-17T10:38:39;4.70;;;2.38;;
52956;SDS011;38819;42.692;23.342;2023-08-17T10:41:11;5.35;;;2.08;;
52956;SDS011;38819;42.692;23.342;2023-08-17T10:43:54;6.03;;;3.53;;
52956;SDS011;38819;42.692;23.342;2023-08-17T10:46:20;6.40;;;2.38;;
52956;SDS011;38819;42.692;23.342;2023-08-17T10:48:45;6.78;;;3.35;;
52956;SDS011;38819;42.692;23.342;2023-08-17T10:51:11;4.43;;;2.95;;
52956;SDS011;38819;42.692;23.342;2023-08-17T10:53:42;10.25;;;2.88;;
52956;SDS011;38819;42.692;23.342;2023-08-17T10:56:12;4.18;;;2.30;;
52956;SDS011;38819;42.692;23.342;2023-08-17T10:58:39;6.40;;;2.78;;
52956;SDS011;38819;42.692;23.342;2023-08-17T11:03:32;10.00;;;3.20;;
52956;SDS011;38819;42.692;23.342;2023-08-17T11:05:58;5.43;;;3.13;;
52956;SDS011;38819;42.692;23.342;2023-08-17T11:08:40;4.85;;;1.95;;
52956;SDS011;38819;42.692;23.342;2023-08-17T11:11:16;4.82;;;2.58;;
52956;SDS011;38819;42.692;23.342;2023-08-17T11:13:45;5.30;;;2.67;;
52956;SDS011;38819;42.692;23.342;2023-08-17T11:16:12;4.53;;;2.40;;
52956;SDS011;38819;42.692;23.342;2023-08-17T11:18:39;2.72;;;2.47;;
52956;SDS011;38819;42.692;23.342;2023-08-17T11:21:06;4.45;;;2.50;;
52956;SDS011;38819;42.692;23.342;2023-08-17T11:23:35;4.97;;;2.33;;
52956;SDS011;38819;42.692;23.342;2023-08-17T11:26:02;4.35;;;2.42;;
52956;SDS011;38819;42.692;23.342;2023-08-17T11:28:31;8.53;;;3.53;;
52956;SDS011;38819;42.692;23.342;2023-08-17T11:31:07;3.63;;;2.45;;
52956;SDS011;38819;42.692;23.342;2023-08-17T11:33:37;4.25;;;2.88;;
52956;SDS011;38819;42.692;23.342;2023-08-17T11:36:04;4.97;;;2.65;;
52956;SDS011;38819;42.692;23.342;2023-08-17T11:38:32;2.25;;;2.03;;
52956;SDS011;38819;42.692;23.342;2023-08-17T11:40:58;2.55;;;2.13;;
52956;SDS011;38819;42.692;23.342;2023-08-17T11:43:25;5.38;;;2.50;;
52956;SDS011;38819;42.692;23.342;2023-08-17T11:45:51;4.90;;;3.70;;
52956;SDS011;38819;42.692;23.342;2023-08-17T11:48:18;4.88;;;2.78;;
52956;SDS011;38819;42.692;23.342;2023-08-17T11:50:44;4.28;;;2.90;;
52956;SDS011;38819;42.692;23.342;2023-08-17T11:53:10;3.72;;;3.30;;
52956;SDS011;38819;42.692;23.342;2023-08-17T11:55:36;3.63;;;2.72;;
52956;SDS011;38819;42.692;23.342;2023-08-17T11:58:02;7.38;;;3.67;;
52956;SDS011;38819;42.692;23.342;2023-08-17T12:00:28;8.07;;;5.78;;
52956;SDS011;38819;42.692;23.342;2023-08-17T12:03:00;7.10;;;2.65;;
52956;SDS011;38819;42.692;23.342;2023-08-17T12:05:25;4.35;;;2.50;;
52956;SDS011;38819;42.692;23.342;2023-08-17T12:07:54;7.20;;;2.63;;
52956;SDS011;38819;42.692;23.342;2023-08-17T12:10:19;6.07;;;2.70;;
52956;SDS011;38819;42.692;23.342;2023-08-17T12:12:47;7.50;;;2.70;;
52956;SDS011;38819;42.692;23.342;2023-08-17T12:15:13;4.90;;;2.88;;
52956;SDS011;38819;42.692;23.342;2023-08-17T12:17:48;6.60;;;2.88;;
52956;SDS011;38819;42.692;23.342;2023-08-17T12:20:18;6.70;;;3.00;;
52956;SDS011;38819;42.692;23.342;2023-08-17T12:22:46;10.07;;;3.15;;
52956;SDS011;38819;42.692;23.342;2023-08-17T12:25:12;7.67;;;2.80;;
52956;SDS011;38819;42.692;23.342;2023-08-17T12:27:39;6.47;;;3.20;;
52956;SDS011;38819;42.692;23.342;2023-08-17T12:30:05;6.57;;;3.58;;
52956;SDS011;38819;42.692;23.342;2023-08-17T12:32:37;4.97;;;3.88;;
52956;SDS011;38819;42.692;23.342;2023-08-17T12:35:03;6.55;;;3.60;;
52956;SDS011;38819;42.692;23.342;2023-08-17T12:37:29;8.18;;;3.50;;
52956;SDS011;38819;42.692;23.342;2023-08-17T12:39:54;5.40;;;3.35;;
52956;SDS011;38819;42.692;23.342;2023-08-17T12:42:19;6.97;;;3.70;;
52956;SDS011;38819;42.692;23.342;2023-08-17T12:44:45;5.50;;;3.38;;
52956;SDS011;38819;42.692;23.342;2023-08-17T12:47:10;6.90;;;3.10;;
52956;SDS011;38819;42.692;23.342;2023-08-17T12:49:36;6.30;;;3.13;;
52956;SDS011;38819;42.692;23.342;2023-08-17T12:52:01;6.22;;;3.17;;
52956;SDS011;38819;42.692;23.342;2023-08-17T12:54:27;8.77;;;2.83;;
52956;SDS011;38819;42.692;23.342;2023-08-17T12:56:52;4.75;;;3.05;;
52956;SDS011;38819;42.692;23.342;2023-08-17T12:59:18;9.52;;;3.80;;
52956;SDS011;38819;42.692;23.342;2023-08-17T13:01:43;5.13;;;3.63;;
52956;SDS011;38819;42.692;23.342;2023-08-17T13:04:09;5.10;;;3.38;;
52956;SDS011;38819;42.692;23.342;2023-08-17T13:06:34;7.65;;;4.05;;
52956;SDS011;38819;42.692;23.342;2023-08-17T13:08:59;5.63;;;3.28;;
52956;SDS011;38819;42.692;23.342;2023-08-17T13:11:25;5.63;;;3.50;;
52956;SDS011;38819;42.692;23.342;2023-08-17T13:13:50;6.03;;;4.22;;
52956;SDS011;38819;42.692;23.342;2023-08-17T13:16:16;10.93;;;4.80;;
52956;SDS011;38819;42.692;23.342;2023-08-17T13:18:41;7.25;;;4.03;;
52956;SDS011;38819;42.692;23.342;2023-08-17T13:21:07;9.25;;;3.30;;
52956;SDS011;38819;42.692;23.342;2023-08-17T13:23:33;4.53;;;3.10;;
52956;SDS011;38819;42.692;23.342;2023-08-17T13:25:58;7.60;;;3.53;;
52956;SDS011;38819;42.692;23.342;2023-08-17T13:28:24;4.13;;;3.72;;
52956;SDS011;38819;42.692;23.342;2023-08-17T13:30:49;7.05;;;3.25;;
52956;SDS011;38819;42.692;23.342;2023-08-17T13:33:15;6.32;;;3.38;;
52956;SDS011;38819;42.692;23.342;2023-08-17T13:35:41;5.75;;;3.47;;
52956;SDS011;38819;42.692;23.342;2023-08-17T13:38:07;7.63;;;3.00;;
52956;SDS011;38819;42.692;23.342;2023-08-17T13:40:33;5.68;;;3.60;;
52956;SDS011;38819;42.692;23.342;2023-08-17T13:42:58;6.38;;;4.05;;
52956;SDS011;38819;42.692;23.342;2023-08-17T13:45:25;5.78;;;3.70;;
52956;SDS011;38819;42.692;23.342;2023-08-17T13:47:51;4.30;;;3.65;;
52956;SDS011;38819;42.692;23.342;2023-08-17T13:50:16;6.22;;;3.33;;
52956;SDS011;38819;42.692;23.342;2023-08-17T13:52:43;3.65;;;3.17;;
52956;SDS011;38819;42.692;23.342;2023-08-17T13:55:09;10.05;;;4.75;;
52956;SDS011;38819;42.692;23.342;2023-08-17T13:57:34;9.93;;;4.80;;
52956;SDS011;38819;42.692;23.342;2023-08-17T14:00:00;6.72;;;3.92;;
52956;SDS011;38819;42.692;23.342;2023-08-17T14:02:25;6.97;;;4.35;;
52956;SDS011;38819;42.692;23.342;2023-08-17T14:04:50;9.13;;;3.38;;
52956;SDS011;38819;42.692;23.342;2023-08-17T14:07:16;3.60;;;3.17;;
52956;SDS011;38819;42.692;23.342;2023-08-17T14:09:41;5.65;;;3.78;;
52956;SDS011;38819;42.692;23.342;2023-08-17T14:12:08;6.85;;;3.78;;
52956;SDS011;38819;42.692;23.342;2023-08-17T14:14:33;5.95;;;3.30;;
52956;SDS011;38819;42.692;23.342;2023-08-17T14:16:59;6.47;;;2.90;;
52956;SDS011;38819;42.692;23.342;2023-08-17T14:19:25;8.40;;;2.80;;
52956;SDS011;38819;42.692;23.342;2023-08-17T14:21:50;5.15;;;2.50;;
52956;SDS011;38819;42.692;23.342;2023-08-17T14:24:17;10.80;;;4.20;;
52956;SDS011;38819;42.692;23.342;2023-08-17T14:26:43;8.10;;;3.28;;
52956;SDS011;38819;42.692;23.342;2023-08-17T14:29:08;4.75;;;3.00;;
52956;SDS011;38819;42.692;23.342;2023-08-17T14:31:34;6.50;;;3.05;;
52956;SDS011;38819;42.692;23.342;2023-08-17T14:33:59;9.95;;;3.25;;
52956;SDS011;38819;42.692;23.342;2023-08-17T14:36:24;6.15;;;3.92;;
52956;SDS011;38819;42.692;23.342;2023-08-17T14:38:50;9.23;;;4.70;;
52956;SDS011;38819;42.692;23.342;2023-08-17T14:41:15;6.70;;;3.60;;
52956;SDS011;38819;42.692;23.342;2023-08-17T14:43:41;5.00;;;3.38;;
52956;SDS011;38819;42.692;23.342;2023-08-17T14:46:07;7.20;;;2.75;;
52956;SDS011;38819;42.692;23.342;2023-08-17T14:48:32;8.75;;;3.03;;
52956;SDS011;38819;42.692;23.342;2023-08-17T14:50:58;5.25;;;2.97;;